sensor_id;sensor_type;location;lat;lon;timestamp;pressure;altitude;pressure_sealevel;temperature;humidity
49044;BME280;34860;48.066;14.124;2022-11-24T00:01:09;95839.88;;;2.09;77.60
49044;BME280;34860;48.066;14.124;2022-11-24T00:03:59;95838.19;;;2.26;77.64
49044;BME280;34860;48.066;14.124;2022-11-24T00:06:50;95841.63;;;2.37;77.56
49044;BME280;34860;48.066;14.124;2022-11-24T00:09:49;95840.03;;;2.43;77.53
49044;BME280;34860;48.066;14.124;2022-11-24T00:12:37;95838.81;;;2.48;77.70
49044;BME280;34860;48.066;14.124;2022-11-24T00:15:26;95840.72;;;2.54;77.58
49044;BME280;34860;48.066;14.124;2022-11-24T00:18:15;95850.06;;;2.61;77.62
49044;BME280;34860;48.066;14.124;2022-11-24T00:21:04;95848.50;;;2.63;77.76
49044;BME280;34860;48.066;14.124;2022-11-24T00:23:55;95842.56;;;2.68;77.76
49044;BME280;34860;48.066;14.124;2022-11-24T00:26:44;95842.56;;;2.68;77.77
49044;BME280;34860;48.066;14.124;2022-11-24T00:29:33;95840.16;;;2.74;77.93
49044;BME280;34860;48.066;14.124;2022-11-24T00:32:22;95840.09;;;2.81;77.87
49044;BME280;34860;48.066;14.124;2022-11-24T00:35:11;95856.09;;;2.90;77.84
49044;BME280;34860;48.066;14.124;2022-11-24T00:37:59;95852.13;;;2.95;77.89
49044;BME280;34860;48.066;14.124;2022-11-24T00:40:50;95845.00;;;3.01;77.85
49044;BME280;34860;48.066;14.124;2022-11-24T00:43:39;95854.78;;;3.05;77.85
49044;BME280;34860;48.066;14.124;2022-11-24T00:46:28;95864.53;;;3.10;77.89
49044;BME280;34860;48.066;14.124;2022-11-24T00:49:17;95866.06;;;3.11;78.03
49044;BME280;34860;48.066;14.124;2022-11-24T00:52:08;95871.13;;;3.16;77.94
49044;BME280;34860;48.066;14.124;2022-11-24T00:54:57;95867.59;;;3.19;77.81
49044;BME280;34860;48.066;14.124;2022-11-24T00:57:48;95873.44;;;3.21;77.86
49044;BME280;34860;48.066;14.124;2022-11-24T01:00:37;95875.00;;;3.22;77.80
49044;BME280;34860;48.066;14.124;2022-11-24T01:03:26;95879.28;;;3.23;77.88
49044;BME280;34860;48.066;14.124;2022-11-24T01:06:16;95874.59;;;3.24;77.91
49044;BME280;34860;48.066;14.124;2022-11-24T01:09:05;95878.06;;;3.28;77.96
49044;BME280;34860;48.066;14.124;2022-11-24T01:11:54;95879.25;;;3.27;77.98
49044;BME280;34860;48.066;14.124;2022-11-24T01:14:51;95871.84;;;3.24;77.88
49044;BME280;34860;48.066;14.124;2022-11-24T01:17:40;95882.44;;;3.22;78.02
49044;BME280;34860;48.066;14.124;2022-11-24T01:20:29;95888.75;;;3.19;78.04
49044;BME280;34860;48.066;14.124;2022-11-24T01:23:18;95883.66;;;3.17;78.04
49044;BME280;34860;48.066;14.124;2022-11-24T01:26:08;95882.53;;;3.15;78.09
49044;BME280;34860;48.066;14.124;2022-11-24T01:28:57;95895.84;;;3.16;78.12
49044;BME280;34860;48.066;14.124;2022-11-24T01:31:47;95895.47;;;3.14;78.24
49044;BME280;34860;48.066;14.124;2022-11-24T01:34:36;95890.34;;;3.16;78.23
49044;BME280;34860;48.066;14.124;2022-11-24T01:37:25;95898.56;;;3.20;78.14
49044;BME280;34860;48.066;14.124;2022-11-24T01:40:14;95899.38;;;3.17;78.13
49044;BME280;34860;48.066;14.124;2022-11-24T01:43:14;95900.13;;;3.17;78.15
49044;BME280;34860;48.066;14.124;2022-11-24T01:46:12;95898.97;;;3.18;78.28
49044;BME280;34860;48.066;14.124;2022-11-24T01:49:13;95906.03;;;3.19;78.11
49044;BME280;34860;48.066;14.124;2022-11-24T01:52:07;95909.53;;;3.20;78.09
49044;BME280;34860;48.066;14.124;2022-11-24T01:55:00;95914.25;;;3.19;78.21
49044;BME280;34860;48.066;14.124;2022-11-24T01:57:53;95911.50;;;3.19;78.18
49044;BME280;34860;48.066;14.124;2022-11-24T02:00:44;95920.47;;;3.23;78.21
49044;BME280;34860;48.066;14.124;2022-11-24T02:03:35;95914.13;;;3.30;78.07
49044;BME280;34860;48.066;14.124;2022-11-24T02:06:29;95924.31;;;3.33;78.07
49044;BME280;34860;48.066;14.124;2022-11-24T02:09:23;95917.22;;;3.36;78.14
49044;BME280;34860;48.066;14.124;2022-11-24T02:12:13;95925.81;;;3.38;77.98
49044;BME280;34860;48.066;14.124;2022-11-24T02:15:02;95906.59;;;3.38;77.97
49044;BME280;34860;48.066;14.124;2022-11-24T02:17:51;95926.22;;;3.40;78.06
49044;BME280;34860;48.066;14.124;2022-11-24T02:20:40;95927.75;;;3.41;78.04
49044;BME280;34860;48.066;14.124;2022-11-24T02:23:36;95921.13;;;3.38;78.17
49044;BME280;34860;48.066;14.124;2022-11-24T02:26:38;95917.53;;;3.41;78.11
49044;BME280;34860;48.066;14.124;2022-11-24T02:29:28;95917.53;;;3.45;78.12
49044;BME280;34860;48.066;14.124;2022-11-24T02:32:17;95915.16;;;3.47;78.18
49044;BME280;34860;48.066;14.124;2022-11-24T02:35:08;95920.19;;;3.52;78.16
49044;BME280;34860;48.066;14.124;2022-11-24T02:37:57;95928.38;;;3.59;78.12
49044;BME280;34860;48.066;14.124;2022-11-24T02:40:48;95928.69;;;3.65;78.15
49044;BME280;34860;48.066;14.124;2022-11-24T02:43:41;95923.94;;;3.69;78.09
49044;BME280;34860;48.066;14.124;2022-11-24T02:46:30;95923.06;;;3.76;78.11
49044;BME280;34860;48.066;14.124;2022-11-24T02:49:19;95928.50;;;3.83;78.18
49044;BME280;34860;48.066;14.124;2022-11-24T02:52:08;95920.16;;;3.90;78.18
49044;BME280;34860;48.066;14.124;2022-11-24T02:54:58;95935.78;;;3.97;78.08
49044;BME280;34860;48.066;14.124;2022-11-24T02:57:47;95934.13;;;4.03;78.14
49044;BME280;34860;48.066;14.124;2022-11-24T03:00:37;95931.34;;;4.07;78.07
49044;BME280;34860;48.066;14.124;2022-11-24T03:03:26;95935.59;;;4.11;78.20
49044;BME280;34860;48.066;14.124;2022-11-24T03:06:15;95939.09;;;4.15;78.25
49044;BME280;34860;48.066;14.124;2022-11-24T03:09:04;95939.03;;;4.19;78.11
49044;BME280;34860;48.066;14.124;2022-11-24T03:11:53;95948.03;;;4.23;78.21
49044;BME280;34860;48.066;14.124;2022-11-24T03:14:41;95958.22;;;4.26;78.08
49044;BME280;34860;48.066;14.124;2022-11-24T03:17:32;95952.31;;;4.28;78.04
49044;BME280;34860;48.066;14.124;2022-11-24T03:20:21;95963.25;;;4.31;78.07
49044;BME280;34860;48.066;14.124;2022-11-24T03:23:10;95956.56;;;4.32;78.14
49044;BME280;34860;48.066;14.124;2022-11-24T03:26:06;95951.84;;;4.33;78.12
49044;BME280;34860;48.066;14.124;2022-11-24T03:28:55;95955.72;;;4.35;78.31
49044;BME280;34860;48.066;14.124;2022-11-24T03:31:44;95961.97;;;4.40;78.25
49044;BME280;34860;48.066;14.124;2022-11-24T03:34:34;95969.75;;;4.45;78.34
49044;BME280;34860;48.066;14.124;2022-11-24T03:37:23;95970.50;;;4.49;78.30
49044;BME280;34860;48.066;14.124;2022-11-24T03:40:12;95977.09;;;4.55;78.25
49044;BME280;34860;48.066;14.124;2022-11-24T03:43:01;95984.09;;;4.60;78.34
49044;BME280;34860;48.066;14.124;2022-11-24T03:45:50;95980.88;;;4.65;78.16
49044;BME280;34860;48.066;14.124;2022-11-24T03:48:39;95983.16;;;4.70;78.06
49044;BME280;34860;48.066;14.124;2022-11-24T03:51:29;95993.34;;;4.73;78.15
49044;BME280;34860;48.066;14.124;2022-11-24T03:54:18;95996.84;;;4.77;78.23
49044;BME280;34860;48.066;14.124;2022-11-24T03:57:07;95986.19;;;4.79;78.19
49044;BME280;34860;48.066;14.124;2022-11-24T03:59:55;95999.88;;;4.83;78.30
49044;BME280;34860;48.066;14.124;2022-11-24T04:02:45;95990.44;;;4.84;78.39
49044;BME280;34860;48.066;14.124;2022-11-24T04:05:34;96004.16;;;4.87;78.28
49044;BME280;34860;48.066;14.124;2022-11-24T04:08:24;95998.59;;;4.91;78.36
49044;BME280;34860;48.066;14.124;2022-11-24T04:11:13;95988.38;;;4.91;78.41
49044;BME280;34860;48.066;14.124;2022-11-24T04:14:16;96004.84;;;4.95;78.51
49044;BME280;34860;48.066;14.124;2022-11-24T04:17:05;96003.19;;;4.98;78.36
49044;BME280;34860;48.066;14.124;2022-11-24T04:19:54;96003.16;;;5.01;78.40
49044;BME280;34860;48.066;14.124;2022-11-24T04:22:43;96012.13;;;5.05;78.28
49044;BME280;34860;48.066;14.124;2022-11-24T04:25:33;96017.63;;;5.09;78.26
49044;BME280;34860;48.066;14.124;2022-11-24T04:28:22;96022.66;;;5.14;78.32
49044;BME280;34860;48.066;14.124;2022-11-24T04:31:10;96032.00;;;5.20;78.35
49044;BME280;34860;48.066;14.124;2022-11-24T04:33:59;96031.94;;;5.24;78.36
49044;BME280;34860;48.066;14.124;2022-11-24T04:36:48;96027.94;;;5.28;78.44
49044;BME280;34860;48.066;14.124;2022-11-24T04:39:37;96058.91;;;5.36;78.37
49044;BME280;34860;48.066;14.124;2022-11-24T04:42:27;96043.50;;;5.39;78.23
49044;BME280;34860;48.066;14.124;2022-11-24T04:45:16;96071.78;;;5.43;78.27
49044;BME280;34860;48.066;14.124;2022-11-24T04:48:05;96057.59;;;5.44;78.30
49044;BME280;34860;48.066;14.124;2022-11-24T04:50:54;96054.00;;;5.48;78.29
49044;BME280;34860;48.066;14.124;2022-11-24T04:53:43;96061.84;;;5.49;78.37
49044;BME280;34860;48.066;14.124;2022-11-24T04:56:31;96070.47;;;5.51;78.43
49044;BME280;34860;48.066;14.124;2022-11-24T04:59:22;96078.69;;;5.55;78.40
49044;BME280;34860;48.066;14.124;2022-11-24T05:02:11;96074.81;;;5.52;78.31
49044;BME280;34860;48.066;14.124;2022-11-24T05:05:00;96080.34;;;5.49;78.45
49044;BME280;34860;48.066;14.124;2022-11-24T05:07:49;96088.28;;;5.46;78.56
49044;BME280;34860;48.066;14.124;2022-11-24T05:10:37;96089.03;;;5.47;78.60
49044;BME280;34860;48.066;14.124;2022-11-24T05:13:26;96083.53;;;5.47;78.50
49044;BME280;34860;48.066;14.124;2022-11-24T05:16:16;96081.91;;;5.50;78.60
49044;BME280;34860;48.066;14.124;2022-11-24T05:19:05;96095.63;;;5.53;78.47
49044;BME280;34860;48.066;14.124;2022-11-24T05:21:54;96102.66;;;5.58;78.51
49044;BME280;34860;48.066;14.124;2022-11-24T05:24:43;96108.59;;;5.56;78.42
49044;BME280;34860;48.066;14.124;2022-11-24T05:27:32;96109.81;;;5.55;78.40
49044;BME280;34860;48.066;14.124;2022-11-24T05:30:20;96106.25;;;5.55;78.51
49044;BME280;34860;48.066;14.124;2022-11-24T05:33:12;96105.53;;;5.51;78.53
49044;BME280;34860;48.066;14.124;2022-11-24T05:36:06;96116.59;;;5.47;78.49
49044;BME280;34860;48.066;14.124;2022-11-24T05:38:54;96123.69;;;5.48;78.49
49044;BME280;34860;48.066;14.124;2022-11-24T05:41:43;96120.56;;;5.46;78.59
49044;BME280;34860;48.066;14.124;2022-11-24T05:44:32;96123.69;;;5.48;78.65
49044;BME280;34860;48.066;14.124;2022-11-24T05:47:21;96133.50;;;5.49;78.60
49044;BME280;34860;48.066;14.124;2022-11-24T05:50:14;96138.22;;;5.49;78.90
49044;BME280;34860;48.066;14.124;2022-11-24T05:53:04;96137.47;;;5.48;78.63
49044;BME280;34860;48.066;14.124;2022-11-24T05:55:53;96154.00;;;5.48;78.71
49044;BME280;34860;48.066;14.124;2022-11-24T05:58:42;96151.59;;;5.50;78.69
49044;BME280;34860;48.066;14.124;2022-11-24T06:01:31;96150.75;;;5.53;78.66
49044;BME280;34860;48.066;14.124;2022-11-24T06:04:19;96141.72;;;5.53;78.49
49044;BME280;34860;48.066;14.124;2022-11-24T06:07:10;96148.81;;;5.54;78.60
49044;BME280;34860;48.066;14.124;2022-11-24T06:09:59;96150.28;;;5.58;78.51
49044;BME280;34860;48.066;14.124;2022-11-24T06:12:48;96157.00;;;5.57;78.52
49044;BME280;34860;48.066;14.124;2022-11-24T06:15:37;96157.84;;;5.54;78.54
49044;BME280;34860;48.066;14.124;2022-11-24T06:18:27;96159.44;;;5.52;78.49
49044;BME280;34860;48.066;14.124;2022-11-24T06:21:15;96165.78;;;5.49;78.58
49044;BME280;34860;48.066;14.124;2022-11-24T06:24:07;96159.56;;;5.44;78.66
49044;BME280;34860;48.066;14.124;2022-11-24T06:26:57;96168.66;;;5.41;78.72
49044;BME280;34860;48.066;14.124;2022-11-24T06:29:46;96171.41;;;5.41;78.73
49044;BME280;34860;48.066;14.124;2022-11-24T06:32:35;96169.84;;;5.40;78.76
49044;BME280;34860;48.066;14.124;2022-11-24T06:35:24;96169.06;;;5.40;78.77
49044;BME280;34860;48.066;14.124;2022-11-24T06:38:13;96176.16;;;5.41;78.79
49044;BME280;34860;48.066;14.124;2022-11-24T06:41:09;96177.75;;;5.38;78.81
49044;BME280;34860;48.066;14.124;2022-11-24T06:44:01;96188.78;;;5.38;78.88
49044;BME280;34860;48.066;14.124;2022-11-24T06:46:50;96189.53;;;5.39;78.75
49044;BME280;34860;48.066;14.124;2022-11-24T06:49:39;96189.94;;;5.41;78.92
49044;BME280;34860;48.066;14.124;2022-11-24T06:52:28;96189.88;;;5.44;78.91
49044;BME280;34860;48.066;14.124;2022-11-24T06:55:17;96194.56;;;5.48;78.72
49044;BME280;34860;48.066;14.124;2022-11-24T06:58:07;96200.44;;;5.50;78.69
49044;BME280;34860;48.066;14.124;2022-11-24T07:00:56;96203.97;;;5.50;78.75
49044;BME280;34860;48.066;14.124;2022-11-24T07:03:45;96203.19;;;5.50;78.70
49044;BME280;34860;48.066;14.124;2022-11-24T07:06:34;96206.31;;;5.52;78.63
49044;BME280;34860;48.066;14.124;2022-11-24T07:09:25;96196.03;;;5.56;78.65
49044;BME280;34860;48.066;14.124;2022-11-24T07:12:14;96191.59;;;5.62;78.64
49044;BME280;34860;48.066;14.124;2022-11-24T07:15:06;96209.28;;;5.64;78.54
49044;BME280;34860;48.066;14.124;2022-11-24T07:17:55;96212.78;;;5.69;78.54
49044;BME280;34860;48.066;14.124;2022-11-24T07:20:44;96219.38;;;5.75;78.62
49044;BME280;34860;48.066;14.124;2022-11-24T07:23:32;96220.09;;;5.79;78.49
49044;BME280;34860;48.066;14.124;2022-11-24T07:26:22;96218.84;;;5.83;78.56
49044;BME280;34860;48.066;14.124;2022-11-24T07:29:11;96213.72;;;5.86;78.62
49044;BME280;34860;48.066;14.124;2022-11-24T07:32:01;96221.50;;;5.91;78.62
49044;BME280;34860;48.066;14.124;2022-11-24T07:34:51;96222.22;;;5.95;79.04
49044;BME280;34860;48.066;14.124;2022-11-24T07:37:40;96228.84;;;6.01;78.58
49044;BME280;34860;48.066;14.124;2022-11-24T07:40:29;96220.97;;;6.03;78.56
49044;BME280;34860;48.066;14.124;2022-11-24T07:43:17;96219.34;;;6.06;78.42
49044;BME280;34860;48.066;14.124;2022-11-24T07:46:11;96219.28;;;6.09;78.53
49044;BME280;34860;48.066;14.124;2022-11-24T07:49:02;96225.94;;;6.12;78.41
49044;BME280;34860;48.066;14.124;2022-11-24T07:51:51;96229.06;;;6.14;78.61
49044;BME280;34860;48.066;14.124;2022-11-24T07:54:39;96223.09;;;6.19;78.58
49044;BME280;34860;48.066;14.124;2022-11-24T07:57:28;96237.50;;;6.30;78.42
49044;BME280;34860;48.066;14.124;2022-11-24T08:00:17;96239.41;;;6.33;78.41
49044;BME280;34860;48.066;14.124;2022-11-24T08:03:12;96253.16;;;6.37;78.32
49044;BME280;34860;48.066;14.124;2022-11-24T08:06:02;96240.03;;;6.41;78.27
49044;BME280;34860;48.066;14.124;2022-11-24T08:09:08;96244.72;;;6.44;78.22
49044;BME280;34860;48.066;14.124;2022-11-24T08:11:57;96248.66;;;6.47;78.37
49044;BME280;34860;48.066;14.124;2022-11-24T08:14:46;96245.03;;;6.50;78.43
49044;BME280;34860;48.066;14.124;2022-11-24T08:17:36;96250.06;;;6.55;78.25
49044;BME280;34860;48.066;14.124;2022-11-24T08:20:25;96247.25;;;6.59;78.20
49044;BME280;34860;48.066;14.124;2022-11-24T08:23:15;96248.75;;;6.63;78.32
49044;BME280;34860;48.066;14.124;2022-11-24T08:26:05;96253.34;;;6.70;78.25
49044;BME280;34860;48.066;14.124;2022-11-24T08:28:57;96248.16;;;6.76;78.08
49044;BME280;34860;48.066;14.124;2022-11-24T08:31:46;96254.31;;;6.83;77.96
49044;BME280;34860;48.066;14.124;2022-11-24T08:34:35;96245.47;;;6.92;77.94
49044;BME280;34860;48.066;14.124;2022-11-24T08:37:24;96247.31;;;6.99;78.01
49044;BME280;34860;48.066;14.124;2022-11-24T08:40:17;96248.38;;;7.05;77.65
49044;BME280;34860;48.066;14.124;2022-11-24T08:43:06;96249.53;;;7.07;77.98
49044;BME280;34860;48.066;14.124;2022-11-24T08:45:58;96249.13;;;7.09;77.75
49044;BME280;34860;48.066;14.124;2022-11-24T08:48:47;96260.44;;;7.15;77.70
49044;BME280;34860;48.066;14.124;2022-11-24T08:51:38;96259.59;;;7.18;77.54
49044;BME280;34860;48.066;14.124;2022-11-24T08:54:27;96267.47;;;7.19;77.74
49044;BME280;34860;48.066;14.124;2022-11-24T08:57:17;96268.94;;;7.24;77.65
49044;BME280;34860;48.066;14.124;2022-11-24T09:00:08;96268.91;;;7.27;77.83
49044;BME280;34860;48.066;14.124;2022-11-24T09:02:58;96271.59;;;7.31;77.82
49044;BME280;34860;48.066;14.124;2022-11-24T09:05:47;96269.88;;;7.37;77.76
49044;BME280;34860;48.066;14.124;2022-11-24T09:08:37;96279.69;;;7.42;77.57
49044;BME280;34860;48.066;14.124;2022-11-24T09:11:26;96278.88;;;7.41;77.84
49044;BME280;34860;48.066;14.124;2022-11-24T09:14:17;96274.91;;;7.42;77.77
49044;BME280;34860;48.066;14.124;2022-11-24T09:17:05;96270.94;;;7.43;77.88
49044;BME280;34860;48.066;14.124;2022-11-24T09:19:57;96277.59;;;7.46;77.83
49044;BME280;34860;48.066;14.124;2022-11-24T09:22:46;96276.41;;;7.47;77.88
49044;BME280;34860;48.066;14.124;2022-11-24T09:25:35;96279.53;;;7.49;77.90
49044;BME280;34860;48.066;14.124;2022-11-24T09:28:23;96290.50;;;7.53;77.81
49044;BME280;34860;48.066;14.124;2022-11-24T09:31:15;96294.84;;;7.54;77.99
49044;BME280;34860;48.066;14.124;2022-11-24T09:34:06;96293.97;;;7.57;77.91
49044;BME280;34860;48.066;14.124;2022-11-24T09:36:55;96298.25;;;7.61;77.79
49044;BME280;34860;48.066;14.124;2022-11-24T09:39:45;96290.22;;;7.67;77.71
49044;BME280;34860;48.066;14.124;2022-11-24T09:42:41;96287.38;;;7.71;77.81
49044;BME280;34860;48.066;14.124;2022-11-24T09:45:42;96297.66;;;7.70;77.69
49044;BME280;34860;48.066;14.124;2022-11-24T09:48:53;96303.19;;;7.70;77.81
49044;BME280;34860;48.066;14.124;2022-11-24T09:51:47;96300.84;;;7.69;77.89
49044;BME280;34860;48.066;14.124;2022-11-24T09:54:40;96309.56;;;7.67;77.87
49044;BME280;34860;48.066;14.124;2022-11-24T09:57:35;96309.31;;;7.61;77.97
49044;BME280;34860;48.066;14.124;2022-11-24T10:00:26;96308.59;;;7.57;78.08
49044;BME280;34860;48.066;14.124;2022-11-24T10:03:19;96304.63;;;7.58;78.08
49044;BME280;34860;48.066;14.124;2022-11-24T10:06:19;96305.75;;;7.61;78.11
49044;BME280;34860;48.066;14.124;2022-11-24T10:09:15;96311.97;;;7.65;78.02
49044;BME280;34860;48.066;14.124;2022-11-24T10:12:17;96310.28;;;7.71;77.89
49044;BME280;34860;48.066;14.124;2022-11-24T10:15:17;96303.81;;;7.78;77.90
49044;BME280;34860;48.066;14.124;2022-11-24T10:18:31;96303.25;;;7.87;77.81
49044;BME280;34860;48.066;14.124;2022-11-24T10:21:34;96295.22;;;7.92;77.77
49044;BME280;34860;48.066;14.124;2022-11-24T10:24:47;96299.47;;;7.97;77.67
49044;BME280;34860;48.066;14.124;2022-11-24T10:27:40;96304.16;;;8.00;77.59
49044;BME280;34860;48.066;14.124;2022-11-24T10:30:30;96302.78;;;8.08;77.60
49044;BME280;34860;48.066;14.124;2022-11-24T10:33:20;96302.25;;;8.13;77.56
49044;BME280;34860;48.066;14.124;2022-11-24T10:36:20;96301.34;;;8.20;77.62
49044;BME280;34860;48.066;14.124;2022-11-24T10:39:17;96294.50;;;8.25;77.65
49044;BME280;34860;48.066;14.124;2022-11-24T10:42:13;96301.06;;;8.31;77.63
49044;BME280;34860;48.066;14.124;2022-11-24T10:45:09;96301.00;;;8.34;77.69
49044;BME280;34860;48.066;14.124;2022-11-24T10:48:00;96300.59;;;8.36;77.43
49044;BME280;34860;48.066;14.124;2022-11-24T10:51:00;96309.22;;;8.38;77.61
49044;BME280;34860;48.066;14.124;2022-11-24T10:53:56;96305.97;;;8.43;77.64
49044;BME280;34860;48.066;14.124;2022-11-24T10:56:50;96295.50;;;8.51;77.54
49044;BME280;34860;48.066;14.124;2022-11-24T10:59:39;96309.16;;;8.58;77.53
49044;BME280;34860;48.066;14.124;2022-11-24T11:02:32;96303.03;;;8.67;77.85
49044;BME280;34860;48.066;14.124;2022-11-24T11:05:35;96314.28;;;8.76;77.51
49044;BME280;34860;48.066;14.124;2022-11-24T11:08:29;96311.00;;;8.81;77.52
49044;BME280;34860;48.066;14.124;2022-11-24T11:11:20;96308.81;;;8.89;77.47
49044;BME280;34860;48.066;14.124;2022-11-24T11:14:11;96307.53;;;8.94;77.51
49044;BME280;34860;48.066;14.124;2022-11-24T11:17:01;96319.38;;;8.94;77.34
49044;BME280;34860;48.066;14.124;2022-11-24T11:19:51;96305.63;;;8.90;77.43
49044;BME280;34860;48.066;14.124;2022-11-24T11:22:49;96309.59;;;8.89;77.61
49044;BME280;34860;48.066;14.124;2022-11-24T11:25:37;96306.50;;;8.87;77.76
49044;BME280;34860;48.066;14.124;2022-11-24T11:28:28;96308.81;;;8.89;77.40
49044;BME280;34860;48.066;14.124;2022-11-24T11:31:19;96304.81;;;8.90;77.56
49044;BME280;34860;48.066;14.124;2022-11-24T11:34:14;96301.63;;;8.91;77.60
49044;BME280;34860;48.066;14.124;2022-11-24T11:37:11;96300.84;;;8.91;77.78
49044;BME280;34860;48.066;14.124;2022-11-24T11:40:01;96298.41;;;8.93;77.73
49044;BME280;34860;48.066;14.124;2022-11-24T11:42:54;96300.31;;;8.96;77.82
49044;BME280;34860;48.066;14.124;2022-11-24T11:45:58;96302.56;;;9.01;77.82
49044;BME280;34860;48.066;14.124;2022-11-24T11:48:49;96308.47;;;9.03;77.98
49044;BME280;34860;48.066;14.124;2022-11-24T11:51:57;96305.38;;;9.14;77.82
49044;BME280;34860;48.066;14.124;2022-11-24T11:55:06;96315.28;;;9.15;77.74
49044;BME280;34860;48.066;14.124;2022-11-24T11:58:00;96314.69;;;9.07;77.73
49044;BME280;34860;48.066;14.124;2022-11-24T12:00:58;96317.22;;;9.02;77.65
49044;BME280;34860;48.066;14.124;2022-11-24T12:04:04;96303.19;;;8.93;77.92
49044;BME280;34860;48.066;14.124;2022-11-24T12:07:12;96315.66;;;8.84;78.07
49044;BME280;34860;48.066;14.124;2022-11-24T12:10:15;96325.38;;;8.76;78.01
49044;BME280;34860;48.066;14.124;2022-11-24T12:13:28;96314.72;;;8.58;78.21
49044;BME280;34860;48.066;14.124;2022-11-24T12:16:27;96311.41;;;8.47;78.53
49044;BME280;34860;48.066;14.124;2022-11-24T12:22:37;96321.53;;;8.53;78.34
49044;BME280;34860;48.066;14.124;2022-11-24T12:25:34;96312.38;;;8.57;78.13
49044;BME280;34860;48.066;14.124;2022-11-24T12:28:34;96315.50;;;8.59;77.89
49044;BME280;34860;48.066;14.124;2022-11-24T12:31:31;96304.84;;;8.57;77.98
49044;BME280;34860;48.066;14.124;2022-11-24T12:34:34;96301.22;;;8.60;78.00
49044;BME280;34860;48.066;14.124;2022-11-24T12:37:39;96302.00;;;8.61;77.98
49044;BME280;34860;48.066;14.124;2022-11-24T12:40:43;96300.09;;;8.58;78.00
49044;BME280;34860;48.066;14.124;2022-11-24T12:43:40;96298.53;;;8.57;77.98
49044;BME280;34860;48.066;14.124;2022-11-24T12:46:41;96291.88;;;8.54;77.95
49044;BME280;34860;48.066;14.124;2022-11-24T12:49:38;96294.72;;;8.50;77.97
49044;BME280;34860;48.066;14.124;2022-11-24T12:52:35;96288.81;;;8.48;77.93
49044;BME280;34860;48.066;14.124;2022-11-24T12:55:25;96296.47;;;8.44;77.98
49044;BME280;34860;48.066;14.124;2022-11-24T12:58:21;96293.59;;;8.48;78.29
49044;BME280;34860;48.066;14.124;2022-11-24T13:01:18;96285.38;;;8.61;78.20
49044;BME280;34860;48.066;14.124;2022-11-24T13:04:17;96288.50;;;8.79;78.01
49044;BME280;34860;48.066;14.124;2022-11-24T13:07:13;96287.69;;;8.95;77.71
49044;BME280;34860;48.066;14.124;2022-11-24T13:10:31;96292.75;;;9.13;77.51
49044;BME280;34860;48.066;14.124;2022-11-24T13:13:56;96297.66;;;9.22;77.57
49044;BME280;34860;48.066;14.124;2022-11-24T13:16:51;96299.22;;;9.23;77.54
49044;BME280;34860;48.066;14.124;2022-11-24T13:20:13;96300.97;;;9.17;77.72
49044;BME280;34860;48.066;14.124;2022-11-24T13:23:20;96299.06;;;9.14;78.08
49044;BME280;34860;48.066;14.124;2022-11-24T13:26:25;96293.53;;;9.14;78.22
49044;BME280;34860;48.066;14.124;2022-11-24T13:29:33;96302.19;;;9.16;78.06
49044;BME280;34860;48.066;14.124;2022-11-24T13:32:44;96298.63;;;9.15;78.17
49044;BME280;34860;48.066;14.124;2022-11-24T13:35:33;96292.44;;;9.11;78.08
49044;BME280;34860;48.066;14.124;2022-11-24T13:38:39;96295.28;;;9.07;78.32
49044;BME280;34860;48.066;14.124;2022-11-24T13:44:46;96293.31;;;8.91;78.24
49044;BME280;34860;48.066;14.124;2022-11-24T13:47:40;96296.19;;;8.88;78.41
49044;BME280;34860;48.066;14.124;2022-11-24T13:51:08;96300.16;;;8.87;78.46
49044;BME280;34860;48.066;14.124;2022-11-24T13:54:08;96297.03;;;8.85;78.45
49044;BME280;34860;48.066;14.124;2022-11-24T14:00:20;96304.81;;;8.90;78.24
49044;BME280;34860;48.066;14.124;2022-11-24T14:03:17;96318.34;;;8.88;78.41
49044;BME280;34860;48.066;14.124;2022-11-24T14:06:14;96311.22;;;8.87;78.54
49044;BME280;34860;48.066;14.124;2022-11-24T14:09:21;96329.34;;;8.91;78.19
49044;BME280;34860;48.066;14.124;2022-11-24T14:12:13;96349.00;;;8.81;78.10
49044;BME280;34860;48.066;14.124;2022-11-24T14:15:20;96364.03;;;7.90;77.98
49044;BME280;34860;48.066;14.124;2022-11-24T14:18:15;96354.28;;;6.98;79.25
49044;BME280;34860;48.066;14.124;2022-11-24T14:21:20;96363.28;;;6.55;79.98
49044;BME280;34860;48.066;14.124;2022-11-24T14:24:19;96350.94;;;6.36;80.15
49044;BME280;34860;48.066;14.124;2022-11-24T14:27:15;96373.06;;;6.32;80.08
49044;BME280;34860;48.066;14.124;2022-11-24T14:30:17;96373.84;;;6.33;79.69
49044;BME280;34860;48.066;14.124;2022-11-24T14:33:09;96380.47;;;6.39;79.61
49044;BME280;34860;48.066;14.124;2022-11-24T14:36:02;96387.06;;;6.45;79.52
49044;BME280;34860;48.066;14.124;2022-11-24T14:38:51;96388.59;;;6.50;79.24
49044;BME280;34860;48.066;14.124;2022-11-24T14:41:42;96386.97;;;6.52;79.19
49044;BME280;34860;48.066;14.124;2022-11-24T14:44:34;96391.22;;;6.57;78.89
49044;BME280;34860;48.066;14.124;2022-11-24T14:47:32;96399.47;;;6.61;78.80
49044;BME280;34860;48.066;14.124;2022-11-24T14:50:22;96409.69;;;6.64;78.69
49044;BME280;34860;48.066;14.124;2022-11-24T14:53:14;96399.06;;;6.62;78.86
49044;BME280;34860;48.066;14.124;2022-11-24T14:56:07;96407.72;;;6.64;78.54
49044;BME280;34860;48.066;14.124;2022-11-24T14:58:57;96409.22;;;6.69;78.51
49044;BME280;34860;48.066;14.124;2022-11-24T15:01:47;96415.88;;;6.71;78.48
49044;BME280;34860;48.066;14.124;2022-11-24T15:04:54;96423.38;;;6.71;78.62
49044;BME280;34860;48.066;14.124;2022-11-24T15:07:59;96425.41;;;6.67;78.70
49044;BME280;34860;48.066;14.124;2022-11-24T15:10:55;96429.03;;;6.64;78.67
49044;BME280;34860;48.066;14.124;2022-11-24T15:13:52;96429.38;;;6.66;78.74
49044;BME280;34860;48.066;14.124;2022-11-24T15:16:43;96430.94;;;6.67;78.87
49044;BME280;34860;48.066;14.124;2022-11-24T15:19:33;96430.91;;;6.70;78.73
49044;BME280;34860;48.066;14.124;2022-11-24T15:22:33;96444.72;;;6.70;78.60
49044;BME280;34860;48.066;14.124;2022-11-24T15:25:27;96448.25;;;6.71;78.64